Time;durP1;ratioP1;P1;durP2;ratioP2;P2;SDS_P1;SDS_P2;PMS_P1;PMS_P2;Temp;Humidity;BMP_temperature;BMP_pressure;BME280_temperature;BME280_humidity;BME280_pressure;Samples;Min_cycle;Max_cycle;Signal;HPM_P1;HPM_P2
2021/04/26 00:00:29;;;;;;;5.37;1.13;;;5.80;49.70;;;;;;5073877;28;20043;-65
2021/04/26 00:02:56;;;;;;;5.17;2.10;;;5.70;49.90;;;;;;5073947;28;20037;-65
2021/04/26 00:05:22;;;;;;;5.10;1.20;;;5.70;50.00;;;;;;5072687;28;20061;-65
2021/04/26 00:07:47;;;;;;;7.33;1.20;;;5.70;50.10;;;;;;5072451;28;20067;-66
2021/04/26 00:10:14;;;;;;;7.53;1.30;;;5.60;50.10;;;;;;5074177;28;20029;-65
2021/04/26 00:12:41;;;;;;;3.93;1.03;;;5.50;50.10;;;;;;5073438;28;20128;-65
2021/04/26 00:15:10;;;;;;;4.10;0.97;;;5.50;50.20;;;;;;5073689;28;20060;-66
2021/04/26 00:17:35;;;;;;;6.00;1.27;;;5.40;50.30;;;;;;5055834;28;20039;-65
2021/04/26 00:20:05;;;;;;;5.63;1.27;;;5.30;50.40;;;;;;5073624;28;20469;-62
2021/04/26 00:22:30;;;;;;;2.87;1.00;;;5.30;50.60;;;;;;5072537;28;20399;-65
2021/04/26 00:24:56;;;;;;;5.70;1.10;;;5.20;50.70;;;;;;5071691;28;20119;-65
2021/04/26 00:27:22;;;;;;;3.17;0.87;;;5.20;50.90;;;;;;5073712;28;20028;-66
2021/04/26 00:29:47;;;;;;;3.80;1.10;;;5.10;50.90;;;;;;5073746;28;20111;-66
2021/04/26 00:32:13;;;;;;;4.33;0.90;;;5.00;51.00;;;;;;5073146;28;20478;-65
2021/04/26 00:34:38;;;;;;;4.40;1.10;;;5.00;51.20;;;;;;5073461;28;20487;-65
2021/04/26 00:37:04;;;;;;;2.97;0.90;;;4.90;51.40;;;;;;5073164;28;20044;-65
2021/04/26 00:39:30;;;;;;;4.00;1.10;;;4.80;51.60;;;;;;5073577;28;20112;-65
2021/04/26 00:41:55;;;;;;;3.60;1.03;;;4.80;51.80;;;;;;5073625;28;20032;-65
2021/04/26 00:44:21;;;;;;;5.57;1.30;;;4.80;52.50;;;;;;5072733;28;20033;-65
2021/04/26 00:46:46;;;;;;;3.50;1.13;;;4.70;52.20;;;;;;5072128;28;20041;-66
2021/04/26 00:49:12;;;;;;;3.87;1.00;;;4.60;52.30;;;;;;5072383;28;20044;-65
2021/04/26 00:51:38;;;;;;;3.37;0.97;;;4.60;52.60;;;;;;5072456;28;20439;-64
2021/04/26 00:54:04;;;;;;;3.97;0.87;;;4.60;52.70;;;;;;5071671;28;20451;-65
2021/04/26 00:56:29;;;;;;;5.60;1.00;;;4.50;53.00;;;;;;5055094;28;20043;-65
2021/04/26 00:58:56;;;;;;;5.83;1.40;;;4.50;53.20;;;;;;5073321;28;20048;-64
2021/04/26 01:01:22;;;;;;;3.70;1.00;;;4.40;53.40;;;;;;5071914;28;20037;-66
2021/04/26 01:03:49;;;;;;;8.47;1.10;;;4.40;53.60;;;;;;5071310;28;20492;-67
2021/04/26 01:06:14;;;;;;;2.83;0.97;;;4.30;53.80;;;;;;5073092;28;20048;-65
2021/04/26 01:08:41;;;;;;;2.63;0.90;;;4.20;54.00;;;;;;5071215;28;20036;-64
2021/04/26 01:11:10;;;;;;;5.53;0.90;;;4.10;54.10;;;;;;5073063;28;20108;-62
2021/04/26 01:14:04;;;;;;;3.07;1.13;;;4.10;54.40;;;;;;5072678;28;20033;-63
2021/04/26 01:16:36;;;;;;;4.77;1.10;;;4.10;54.80;;;;;;5071096;28;20036;-63
2021/04/26 01:19:22;;;;;;;3.00;0.90;;;4.00;54.90;;;;;;5072752;28;20033;-64
2021/04/26 01:22:14;;;;;;;8.20;1.87;;;3.90;55.30;;;;;;5054576;28;20568;-63
2021/04/26 01:24:58;;;;;;;2.80;0.83;;;3.90;55.50;;;;;;5061138;28;20064;-63
2021/04/26 01:27:45;;;;;;;5.57;1.20;;;3.80;55.70;;;;;;5071391;28;20040;-63
2021/04/26 01:30:16;;;;;;;3.20;1.00;;;3.70;55.80;;;;;;5072593;28;20150;-63
2021/04/26 01:33:18;;;;;;;3.77;1.10;;;3.60;56.10;;;;;;5070546;28;20097;-63
2021/04/26 01:35:49;;;;;;;3.20;1.00;;;3.60;56.40;;;;;;5070906;28;20043;-64
2021/04/26 01:38:23;;;;;;;3.73;1.20;;;3.50;56.70;;;;;;5072513;28;20475;-63
2021/04/26 01:40:51;;;;;;;2.57;0.90;;;3.50;57.00;;;;;;5071120;28;20544;-63
2021/04/26 01:43:21;;;;;;;3.07;1.00;;;3.40;57.20;;;;;;5071680;28;20033;-63
2021/04/26 01:45:51;;;;;;;3.60;0.90;;;3.40;57.60;;;;;;5072307;28;20467;-64
2021/04/26 01:48:17;;;;;;;3.43;1.00;;;3.30;57.60;;;;;;5071741;28;20409;-63
2021/04/26 01:50:48;;;;;;;;;;;3.30;57.70;;;;;;5071375;28;20029;-63
2021/04/26 01:53:16;;;;;;;4.27;1.00;;;3.20;57.80;;;;;;5071619;28;20015;-64
2021/04/26 01:55:43;;;;;;;4.13;1.27;;;3.20;57.60;;;;;;5070948;28;20033;-63
2021/04/26 01:58:10;;;;;;;3.53;1.10;;;3.30;57.80;;;;;;5072109;28;20032;-63
2021/04/26 02:00:38;;;;;;;4.53;1.20;;;3.20;57.80;;;;;;5071579;28;20037;-63
2021/04/26 02:03:13;;;;;;;7.00;1.20;;;3.10;58.10;;;;;;5071683;28;20060;-63
2021/04/26 02:05:59;;;;;;;4.87;1.10;;;3.10;58.30;;;;;;5089930;22;20063;-64
2021/04/26 02:08:28;;;;;;;2.80;0.95;;;3.00;58.70;;;;;;5050657;28;20040;-64
2021/04/26 02:10:55;;;;;;;3.60;1.20;;;3.00;58.80;;;;;;5033466;28;20029;-63
2021/04/26 02:13:26;;;;;;;3.13;1.00;;;2.90;59.10;;;;;;5050200;28;20075;-63
2021/04/26 02:15:56;;;;;;;3.63;1.13;;;2.90;59.20;;;;;;5032961;28;20037;-63
2021/04/26 02:18:22;;;;;;;5.10;1.20;;;2.80;59.30;;;;;;5033949;28;20403;-63
2021/04/26 02:20:49;;;;;;;4.23;1.10;;;2.80;59.40;;;;;;5033600;28;20029;-64
2021/04/26 02:23:15;;;;;;;3.37;0.97;;;2.80;59.60;;;;;;5000304;28;20037;-63
2021/04/26 02:25:42;;;;;;;4.53;1.10;;;2.70;60.30;;;;;;5033498;28;20044;-63
2021/04/26 02:28:09;;;;;;;2.17;1.03;;;2.80;60.00;;;;;;5051007;28;20068;-63
2021/04/26 02:30:35;;;;;;;2.93;1.10;;;2.70;60.30;;;;;;5033837;28;20025;-63
2021/04/26 02:33:14;;;;;;;2.13;0.97;;;2.60;60.40;;;;;;5016883;28;20519;-63
2021/04/26 02:36:20;;;;;;;3.70;1.07;;;2.60;60.70;;;;;;5047355;28;20440;-63
2021/04/26 02:38:50;;;;;;;3.25;1.02;;;2.60;60.80;;;;;;5016894;28;20033;-63
2021/04/26 02:41:26;;;;;;;4.93;1.40;;;2.50;60.80;;;;;;5033467;28;20101;-63
2021/04/26 02:44:00;;;;;;;3.80;1.13;;;2.50;61.30;;;;;;5033383;28;20041;-64
2021/04/26 02:46:31;;;;;;;4.43;1.10;;;2.50;61.40;;;;;;5033022;28;20068;-63
2021/04/26 02:48:57;;;;;;;;;;;2.50;61.50;;;;;;5033966;28;20045;-63
2021/04/26 02:51:28;;;;;;;3.20;1.10;;;2.40;61.50;;;;;;5016591;28;19912;-64
2021/04/26 02:53:56;;;;;;;2.75;1.05;;;2.40;61.60;;;;;;5050917;28;20087;-63
2021/04/26 02:56:22;;;;;;;2.83;1.10;;;2.40;61.70;;;;;;5016422;28;20554;-63
2021/04/26 02:58:52;;;;;;;3.97;1.30;;;2.30;62.10;;;;;;5033246;28;20041;-63
2021/04/26 03:01:25;;;;;;;3.57;1.20;;;2.30;62.30;;;;;;5033338;28;20037;-63
2021/04/26 03:03:58;;;;;;;4.37;1.17;;;2.20;62.30;;;;;;5017209;28;20040;-63
2021/04/26 03:06:24;;;;;;;3.43;1.20;;;2.20;62.40;;;;;;5033158;28;20041;-61
2021/04/26 03:09:12;;;;;;;3.10;1.00;;;2.20;62.70;;;;;;5033561;28;20033;-65
2021/04/26 03:11:38;;;;;;;3.90;1.10;;;2.10;62.90;;;;;;5033265;28;20079;-63
2021/04/26 03:14:05;;;;;;;6.00;1.40;;;2.10;63.00;;;;;;5016035;28;20037;-62
2021/04/26 03:16:32;;;;;;;4.77;1.10;;;2.10;63.20;;;;;;5050978;28;20037;-63
2021/04/26 03:18:59;;;;;;;3.47;1.10;;;2.10;63.20;;;;;;5016308;28;20033;-62
2021/04/26 03:21:25;;;;;;;3.43;1.10;;;2.10;63.40;;;;;;5033109;28;20120;-62
2021/04/26 03:23:55;;;;;;;7.90;1.60;;;2.10;63.60;;;;;;5032561;28;20464;-63
2021/04/26 03:26:22;;;;;;;4.67;1.10;;;2.10;63.80;;;;;;5032484;28;20045;-63
2021/04/26 03:28:49;;;;;;;4.27;1.20;;;2.00;64.00;;;;;;5036675;28;20033;-63
2021/04/26 03:31:15;;;;;;;4.13;1.07;;;2.00;64.30;;;;;;5020662;28;20723;-63
2021/04/26 03:34:09;;;;;;;3.47;0.83;;;2.00;64.50;;;;;;5045864;28;20064;-63
2021/04/26 03:36:38;;;;;;;3.23;1.20;;;2.00;64.30;;;;;;5036949;28;20033;-62
2021/04/26 03:39:07;;;;;;;2.93;1.20;;;1.90;64.70;;;;;;5036398;28;20503;-62
2021/04/26 03:41:33;;;;;;;3.30;1.27;;;2.00;64.80;;;;;;5036707;28;20040;-63
2021/04/26 03:43:59;;;;;;;4.73;1.20;;;2.00;64.90;;;;;;5054018;28;20447;-63
2021/04/26 03:46:28;;;;;;;3.93;1.27;;;1.90;65.00;;;;;;5054413;28;20059;-63
2021/04/26 03:49:24;;;;;;;2.80;1.03;;;1.90;65.30;;;;;;5054060;28;20124;-63
2021/04/26 03:52:12;;;;;;;5.73;1.30;;;1.90;65.60;;;;;;5051478;28;20040;-62
2021/04/26 03:54:56;;;;;;;5.33;1.67;;;2.00;65.90;;;;;;5054201;28;20075;-63
2021/04/26 03:57:22;;;;;;;4.70;1.20;;;2.00;66.10;;;;;;5053723;28;20037;-63
2021/04/26 03:59:48;;;;;;;3.73;1.17;;;2.00;66.20;;;;;;5054295;28;20507;-62
2021/04/26 04:02:13;;;;;;;4.77;1.20;;;2.10;66.30;;;;;;5019602;28;20443;-62
2021/04/26 04:04:42;;;;;;;3.87;1.13;;;2.10;66.40;;;;;;5019094;28;20111;-63
2021/04/26 04:07:27;;;;;;;2.67;0.93;;;2.10;66.30;;;;;;5024376;28;20098;-62
2021/04/26 04:10:14;;;;;;;4.17;1.27;;;2.10;66.40;;;;;;5054322;28;20476;-63
2021/04/26 04:13:12;;;;;;;4.95;1.20;;;2.20;66.60;;;;;;5013247;28;20047;-63
2021/04/26 04:15:38;;;;;;;6.20;1.10;;;2.20;66.70;;;;;;5035960;28;20520;-62
2021/04/26 04:18:05;;;;;;;2.83;1.10;;;2.20;66.90;;;;;;5034413;28;20449;-62
2021/04/26 04:20:35;;;;;;;6.13;1.20;;;2.20;67.20;;;;;;5053978;28;20033;-63
2021/04/26 04:23:01;;;;;;;4.43;1.20;;;2.30;67.30;;;;;;5018870;28;20037;-63
2021/04/26 04:25:27;;;;;;;5.63;1.30;;;2.30;67.40;;;;;;5035497;28;20404;-63
2021/04/26 04:27:54;;;;;;;3.13;1.20;;;2.40;67.50;;;;;;5019781;28;20489;-63
2021/04/26 04:30:20;;;;;;;4.93;1.23;;;2.40;67.50;;;;;;5053294;28;20091;-63
2021/04/26 04:33:06;;;;;;;4.63;1.30;;;2.50;68.10;;;;;;5052847;28;20059;-63
2021/04/26 04:35:57;;;;;;;3.10;1.27;;;2.50;67.80;;;;;;5033697;28;20039;-63
2021/04/26 04:38:41;;;;;;;6.53;1.40;;;2.50;68.00;;;;;;5052458;28;20144;-63
2021/04/26 04:41:25;;;;;;;6.23;1.50;;;2.60;68.30;;;;;;5056879;28;20562;-63
2021/04/26 04:43:52;;;;;;;6.60;1.40;;;2.70;68.60;;;;;;5022968;28;20051;-63
2021/04/26 04:46:18;;;;;;;5.30;1.50;;;2.80;68.90;;;;;;5040871;28;20033;-63
2021/04/26 04:48:51;;;;;;;5.73;1.40;;;3.00;69.20;;;;;;5037749;28;20037;-63
2021/04/26 04:51:21;;;;;;;7.60;1.40;;;3.20;69.20;;;;;;5020391;28;20039;-63
2021/04/26 04:53:53;;;;;;;5.33;1.30;;;3.30;69.10;;;;;;5035572;28;20095;-64
2021/04/26 04:56:20;;;;;;;6.80;1.60;;;3.50;69.00;;;;;;5052810;28;20036;-63
2021/04/26 04:58:46;;;;;;;4.70;1.30;;;3.60;68.90;;;;;;5035640;28;20408;-62
2021/04/26 05:01:12;;;;;;;6.27;1.60;;;3.80;69.40;;;;;;5034411;28;20036;-63
2021/04/26 05:03:56;;;;;;;5.83;1.80;;;3.90;68.70;;;;;;5052703;28;20055;-62
2021/04/26 05:06:57;;;;;;;7.28;1.58;;;4.00;68.30;;;;;;5036954;28;20134;-62
2021/04/26 05:09:42;;;;;;;4.30;1.33;;;4.10;68.10;;;;;;5037039;28;20523;-61
2021/04/26 05:12:26;;;;;;;5.27;1.30;;;4.20;68.00;;;;;;5037718;28;20090;-63
2021/04/26 05:14:55;;;;;;;6.20;1.60;;;4.20;67.80;;;;;;5052478;28;20037;-63
2021/04/26 05:17:21;;;;;;;6.37;1.60;;;4.30;68.00;;;;;;5034379;28;20048;-62
2021/04/26 05:19:47;;;;;;;7.50;1.50;;;4.40;68.10;;;;;;5052563;28;20526;-63
2021/04/26 05:22:12;;;;;;;5.37;1.80;;;4.50;68.20;;;;;;5018142;28;20037;-63
2021/04/26 05:24:40;;;;;;;4.60;1.97;;;4.60;68.20;;;;;;5018014;28;20033;-63
2021/04/26 05:27:07;;;;;;;7.07;2.40;;;4.70;68.30;;;;;;5022463;28;20048;-63
2021/04/26 05:29:32;;;;;;;6.10;2.90;;;4.80;68.20;;;;;;5011706;28;20037;-64
2021/04/26 05:31:59;;;;;;;7.07;2.77;;;5.00;68.20;;;;;;5032071;28;20040;-63
2021/04/26 05:34:26;;;;;;;6.57;1.97;;;5.10;68.30;;;;;;5014460;28;20043;-63
2021/04/26 05:36:52;;;;;;;7.03;2.00;;;5.30;68.50;;;;;;5021409;28;20025;-63
2021/04/26 05:39:18;;;;;;;4.13;1.50;;;5.50;68.70;;;;;;5041613;28;20087;-63
2021/04/26 05:41:45;;;;;;;5.43;1.63;;;5.90;69.60;;;;;;5013996;28;20079;-62
2021/04/26 05:44:12;;;;;;;6.77;1.87;;;6.20;68.70;;;;;;5031098;28;20038;-63
2021/04/26 05:47:07;;;;;;;4.53;1.60;;;6.40;67.10;;;;;;5013744;28;20132;-63
2021/04/26 05:49:33;;;;;;;5.90;1.97;;;6.50;66.90;;;;;;5031481;28;20457;-63
2021/04/26 05:51:58;;;;;;;4.97;1.93;;;6.60;65.90;;;;;;5031809;28;20485;-62
2021/04/26 05:54:24;;;;;;;5.80;1.80;;;6.70;65.40;;;;;;5014265;28;20037;-63
2021/04/26 05:56:50;;;;;;;7.63;1.70;;;6.80;65.10;;;;;;5032239;28;20063;-63
2021/04/26 05:59:15;;;;;;;5.37;1.70;;;7.00;65.10;;;;;;5031721;28;20450;-63
2021/04/26 06:01:41;;;;;;;5.00;1.70;;;7.20;64.40;;;;;;5032241;28;20026;-63
2021/04/26 06:04:07;;;;;;;5.83;1.73;;;7.40;64.20;;;;;;5031790;28;20413;-63
2021/04/26 06:06:32;;;;;;;6.37;1.70;;;7.60;64.20;;;;;;5013563;28;20120;-63
2021/04/26 06:08:58;;;;;;;6.00;1.90;;;7.80;64.30;;;;;;5032102;28;20037;-63
2021/04/26 06:11:24;;;;;;;6.43;1.63;;;8.30;65.50;;;;;;5031440;28;20045;-63
2021/04/26 06:13:50;;;;;;;6.03;1.97;;;9.40;68.60;;;;;;5013765;28;20034;-63
2021/04/26 06:16:16;;;;;;;8.70;1.67;;;10.00;64.20;;;;;;5014211;28;20621;-63
2021/04/26 06:18:41;;;;;;;4.80;1.70;;;10.00;59.80;;;;;;5031256;28;20083;-63
2021/04/26 06:21:07;;;;;;;5.77;1.90;;;9.80;59.00;;;;;;5014002;28;20045;-63
2021/04/26 06:23:33;;;;;;;7.07;1.93;;;9.80;58.60;;;;;;5031047;28;20037;-63
2021/04/26 06:25:58;;;;;;;6.13;1.70;;;10.10;59.50;;;;;;4997550;28;20464;-63
2021/04/26 06:28:24;;;;;;;5.60;1.80;;;10.40;58.20;;;;;;5014113;28;20029;-63
2021/04/26 06:30:50;;;;;;;5.05;1.73;;;10.50;56.90;;;;;;5013508;28;20029;-63
2021/04/26 06:33:16;;;;;;;7.47;1.77;;;11.10;57.60;;;;;;5031204;28;20043;-63
2021/04/26 06:35:48;;;;;;;5.30;1.75;;;11.40;55.10;;;;;;5013637;28;20034;-63
2021/04/26 06:38:14;;;;;;;6.40;1.80;;;12.10;55.80;;;;;;5031284;28;20026;-63
2021/04/26 06:40:41;;;;;;;5.22;1.50;;;13.10;55.70;;;;;;5031573;28;20056;-63
2021/04/26 06:43:08;;;;;;;5.63;1.70;;;13.30;51.90;;;;;;5030588;28;20075;-63
2021/04/26 06:45:34;;;;;;;4.90;1.63;;;13.10;49.70;;;;;;5031290;28;20084;-64
2021/04/26 06:48:00;;;;;;;5.40;1.55;;;13.70;52.10;;;;;;5030833;28;20044;-64
2021/04/26 06:50:26;;;;;;;5.88;1.55;;;14.70;52.10;;;;;;5012881;28;20037;-63
2021/04/26 06:52:54;;;;;;;4.22;1.30;;;15.60;50.10;;;;;;5030852;28;20033;-63
2021/04/26 06:55:20;;;;;;;6.68;1.60;;;15.30;44.80;;;;;;5030774;28;20034;-63
2021/04/26 06:57:46;;;;;;;5.50;1.50;;;14.40;42.50;;;;;;5013524;28;20037;-63
2021/04/26 07:00:14;;;;;;;5.47;1.23;;;14.00;43.70;;;;;;5031336;28;20033;-63
2021/04/26 07:02:40;;;;;;;3.05;1.23;;;13.70;43.00;;;;;;5012877;28;20038;-63
2021/04/26 07:05:07;;;;;;;6.35;1.23;;;13.50;42.60;;;;;;5030817;28;20060;-63
2021/04/26 07:07:33;;;;;;;5.22;1.35;;;13.50;42.80;;;;;;5013213;28;20386;-64
2021/04/26 07:09:59;;;;;;;5.78;1.20;;;13.90;43.00;;;;;;5030434;28;20087;-64
2021/04/26 07:12:25;;;;;;;5.28;1.30;;;15.90;48.70;;;;;;5030734;28;20038;-64
2021/04/26 07:14:51;;;;;;;3.85;1.10;;;18.30;45.90;;;;;;5012452;28;20029;-64
2021/04/26 07:17:17;;;;;;;5.85;1.02;;;20.00;42.80;;;;;;5030771;28;20397;-65
2021/04/26 07:19:43;;;;;;;3.08;1.08;;;20.40;38.30;;;;;;4996718;28;20029;-65
2021/04/26 07:22:09;;;;;;;6.60;1.00;;;21.00;36.90;;;;;;5012525;28;20377;-64
2021/04/26 07:24:35;;;;;;;4.90;1.30;;;20.30;32.30;;;;;;5012828;28;20080;-65
2021/04/26 07:27:00;;;;;;;4.78;1.00;;;19.90;32.20;;;;;;5030096;28;20413;-64
2021/04/26 07:29:26;;;;;;;4.03;1.10;;;20.20;32.00;;;;;;5030582;28;20061;-64
2021/04/26 07:31:52;;;;;;;4.07;1.15;;;20.00;31.20;;;;;;5013026;28;20108;-65
2021/04/26 07:34:18;;;;;;;2.58;1.00;;;19.30;29.20;;;;;;4995803;28;20485;-64
2021/04/26 07:36:44;;;;;;;3.35;1.00;;;18.30;28.90;;;;;;5030513;28;20156;-64
2021/04/26 07:39:10;;;;;;;3.30;0.95;;;17.20;29.30;;;;;;5030567;28;20037;-62
2021/04/26 07:41:36;;;;;;;4.10;1.10;;;16.50;29.30;;;;;;5012783;28;20038;-64
2021/04/26 07:44:03;;;;;;;4.20;1.08;;;16.40;30.30;;;;;;5030282;28;20040;-64
2021/04/26 07:46:28;;;;;;;2.40;0.90;;;17.10;31.40;;;;;;5029222;28;20183;-64
2021/04/26 07:48:54;;;;;;;4.75;1.00;;;17.90;30.20;;;;;;5012820;28;20124;-64
2021/04/26 07:51:20;;;;;;;2.53;0.98;;;17.90;29.10;;;;;;5030444;28;20053;-64
2021/04/26 07:53:47;;;;;;;2.80;0.90;;;17.70;29.20;;;;;;5029736;28;20097;-64
2021/04/26 07:56:13;;;;;;;2.97;0.93;;;17.90;29.30;;;;;;5030385;28;20029;-64
2021/04/26 07:58:39;;;;;;;3.50;0.90;;;18.20;28.70;;;;;;4995941;28;20405;-64
2021/04/26 08:01:05;;;;;;;3.53;0.80;;;18.20;28.30;;;;;;5030194;28;20048;-63
2021/04/26 08:03:31;;;;;;;6.80;1.20;;;18.30;28.30;;;;;;5012253;28;20033;-64
2021/04/26 08:05:57;;;;;;;2.42;0.88;;;17.80;28.00;;;;;;5029980;28;20103;-65
2021/04/26 08:08:23;;;;;;;3.03;1.02;;;17.50;27.70;;;;;;5012789;28;20049;-64
2021/04/26 08:10:50;;;;;;;1.58;0.85;;;17.10;27.80;;;;;;5029960;28;20041;-64
2021/04/26 08:13:16;;;;;;;5.05;1.05;;;17.20;27.70;;;;;;5030998;28;20033;-64
2021/04/26 08:15:43;;;;;;;3.78;0.90;;;17.10;27.40;;;;;;5033730;28;20064;-65
2021/04/26 08:18:09;;;;;;;2.53;0.85;;;17.90;28.30;;;;;;5033561;28;20029;-69
2021/04/26 08:20:36;;;;;;;2.30;0.80;;;20.50;29.30;;;;;;5016062;28;20053;-68
2021/04/26 08:23:03;;;;;;;3.00;1.02;;;23.40;28.20;;;;;;5015242;28;20034;-66
2021/04/26 08:25:30;;;;;;;6.07;1.00;;;25.50;25.80;;;;;;5015797;28;20034;-63
2021/04/26 08:27:57;;;;;;;2.65;0.90;;;26.70;25.30;;;;;;4999490;28;20041;-64
2021/04/26 08:30:23;;;;;;;2.63;0.90;;;28.60;25.40;;;;;;5015307;28;20040;-64
2021/04/26 08:32:50;;;;;;;1.50;0.70;;;29.70;23.20;;;;;;5033202;28;20030;-64
2021/04/26 08:35:16;;;;;;;4.22;0.93;;;29.40;21.40;;;;;;5033056;28;20041;-64
2021/04/26 08:37:42;;;;;;;3.47;0.90;;;29.20;21.60;;;;;;5033303;28;20048;-64
2021/04/26 08:40:09;;;;;;;6.72;1.05;;;28.90;20.60;;;;;;4999400;28;20033;-64
2021/04/26 08:42:35;;;;;;;3.17;0.90;;;29.00;21.30;;;;;;5015411;28;20029;-64
2021/04/26 08:45:01;;;;;;;2.15;0.80;;;28.40;20.20;;;;;;4998802;28;20048;-64
2021/04/26 08:47:28;;;;;;;3.85;1.10;;;27.20;20.30;;;;;;5014560;28;20045;-63
2021/04/26 08:49:56;;;;;;;4.90;1.00;;;26.50;20.30;;;;;;4999163;28;20050;-64
2021/04/26 08:52:22;;;;;;;3.97;1.08;;;26.60;20.80;;;;;;5033233;28;20061;-64
2021/04/26 08:54:48;;;;;;;2.28;0.80;;;27.70;21.10;;;;;;5032422;28;20124;-64
2021/04/26 08:57:15;;;;;;;5.47;1.20;;;27.50;20.40;;;;;;5015210;28;20042;-64
2021/04/26 08:59:43;;;;;;;3.50;1.02;;;27.40;20.10;;;;;;5032942;28;20133;-64
2021/04/26 09:02:10;;;;;;;4.72;0.95;;;28.00;20.20;;;;;;5015090;28;20037;-64
2021/04/26 09:04:45;;;;;;;3.35;0.93;;;29.20;19.80;;;;;;5014957;28;20109;-64
2021/04/26 09:07:13;;;;;;;2.80;0.98;;;30.40;19.90;;;;;;5014486;28;20041;-64
2021/04/26 09:09:47;;;;;;;2.53;0.80;;;31.90;19.80;;;;;;5015205;28;20112;-64
2021/04/26 09:12:22;;;;;;;4.05;0.90;;;31.80;18.70;;;;;;5032468;28;20498;-64
2021/04/26 09:14:54;;;;;;;2.67;0.98;;;30.50;18.50;;;;;;5032415;28;20400;-64
2021/04/26 09:17:34;;;;;;;2.35;1.00;;;30.90;18.90;;;;;;5014357;28;20059;-65
2021/04/26 09:20:20;;;;;;;2.63;0.98;;;32.20;18.90;;;;;;5014770;28;20041;-64
2021/04/26 09:22:58;;;;;;;1.92;1.00;;;33.30;18.60;;;;;;5014738;28;20087;-65
2021/04/26 09:25:40;;;;;;;4.15;0.90;;;34.30;18.40;;;;;;5032026;28;20037;-65
2021/04/26 09:28:06;;;;;;;4.35;1.08;;;34.60;18.00;;;;;;5014634;28;20037;-65
2021/04/26 09:30:51;;;;;;;3.97;0.93;;;35.40;18.20;;;;;;5032327;28;20030;-65
2021/04/26 09:33:33;;;;;;;2.25;0.80;;;36.40;18.00;;;;;;5031913;28;20038;-65
2021/04/26 09:38:53;;;;;;;2.70;1.10;;;34.70;17.30;;;;;;5032480;28;20481;-64
2021/04/26 09:41:22;;;;;;;3.40;1.00;;;32.50;16.30;;;;;;5014294;28;20037;-64
2021/04/26 09:44:13;;;;;;;2.97;1.00;;;29.10;16.10;;;;;;5031877;28;20025;-64
2021/04/26 09:46:42;;;;;;;2.88;1.00;;;25.80;16.50;;;;;;5030635;28;20116;-65
2021/04/26 09:49:14;;;;;;;3.40;0.90;;;23.20;17.60;;;;;;5014351;28;20041;-65
2021/04/26 09:51:41;;;;;;;3.92;1.20;;;21.70;18.10;;;;;;5013884;28;20266;-63
2021/04/26 09:54:07;;;;;;;6.20;1.20;;;20.60;18.80;;;;;;5031934;28;20037;-63
2021/04/26 09:56:41;;;;;;;2.50;1.05;;;19.90;19.20;;;;;;4997431;28;20037;-63
2021/04/26 09:59:09;;;;;;;2.83;1.10;;;19.70;20.30;;;;;;5014376;28;20068;-63
2021/04/26 10:01:35;;;;;;;1.98;0.90;;;20.40;20.80;;;;;;5031652;28;20045;-63
2021/04/26 10:04:03;;;;;;;2.78;1.20;;;20.80;20.30;;;;;;5031035;28;20026;-63
2021/04/26 10:06:29;;;;;;;4.75;1.10;;;20.70;20.00;;;;;;5031447;28;20037;-63
2021/04/26 10:09:01;;;;;;;3.05;1.10;;;20.40;20.20;;;;;;5031330;28;20521;-63
2021/04/26 10:11:30;;;;;;;5.97;1.10;;;20.10;20.40;;;;;;5031822;28;20033;-63
2021/04/26 10:14:05;;;;;;;2.67;1.30;;;19.90;20.50;;;;;;5013404;28;20041;-63
2021/04/26 10:16:37;;;;;;;3.85;1.30;;;19.70;20.70;;;;;;5031665;28;20455;-63
2021/04/26 10:19:05;;;;;;;4.57;1.38;;;19.50;20.60;;;;;;5013518;28;20045;-63
2021/04/26 10:21:33;;;;;;;4.45;1.30;;;19.20;20.60;;;;;;5013948;28;20029;-63
2021/04/26 10:24:15;;;;;;;3.28;1.20;;;18.80;20.60;;;;;;5031304;28;20561;-63
2021/04/26 10:26:43;;;;;;;2.15;1.05;;;18.50;20.80;;;;;;5013348;28;20558;-63
2021/04/26 10:29:26;;;;;;;3.30;1.20;;;20.20;22.20;;;;;;5031445;28;20271;-64
2021/04/26 10:32:01;;;;;;;3.72;1.20;;;24.20;22.00;;;;;;5013435;28;20042;-64
2021/04/26 10:34:29;;;;;;;2.58;1.00;;;28.40;21.60;;;;;;5013432;28;20056;-65
2021/04/26 10:36:58;;;;;;;2.67;1.10;;;32.30;20.40;;;;;;5012774;28;20038;-65
2021/04/26 10:39:26;;;;;;;2.43;1.10;;;34.70;19.00;;;;;;5013438;28;20079;-66
2021/04/26 10:42:00;;;;;;;3.22;1.20;;;34.80;17.40;;;;;;5030947;28;20329;-64
2021/04/26 10:44:42;;;;;;;2.42;1.17;;;32.20;16.50;;;;;;4997076;28;20413;-64
2021/04/26 10:47:17;;;;;;;7.13;1.10;;;28.60;16.20;;;;;;5012845;28;20041;-63
2021/04/26 10:49:44;;;;;;;2.55;1.20;;;25.80;16.60;;;;;;5031150;28;20037;-65
2021/04/26 10:52:34;;;;;;;2.17;1.10;;;26.30;18.90;;;;;;5012937;28;20038;-65
2021/04/26 10:55:22;;;;;;;3.67;1.17;;;27.90;18.70;;;;;;5013219;28;20042;-64
2021/04/26 10:57:51;;;;;;;2.97;1.00;;;27.40;17.40;;;;;;5030424;28;20524;-64
2021/04/26 11:00:21;;;;;;;3.25;1.13;;;25.50;17.20;;;;;;5013520;28;20117;-64
2021/04/26 11:03:05;;;;;;;5.10;1.30;;;24.10;17.50;;;;;;5030190;28;20030;-64
2021/04/26 11:05:34;;;;;;;3.55;1.10;;;22.90;17.90;;;;;;5012928;28;20037;-64
2021/04/26 11:08:10;;;;;;;4.45;1.17;;;22.30;18.60;;;;;;5030313;28;20444;-64
2021/04/26 11:10:42;;;;;;;2.78;1.20;;;23.70;19.30;;;;;;5030841;28;20029;-65
2021/04/26 11:13:30;;;;;;;4.20;1.20;;;25.80;19.30;;;;;;5030337;28;20033;-65
2021/04/26 11:16:05;;;;;;;4.20;1.10;;;25.80;18.10;;;;;;5012700;28;20037;-65
2021/04/26 11:18:33;;;;;;;4.40;1.20;;;25.10;18.10;;;;;;5030760;28;20034;-64
2021/04/26 11:20:59;;;;;;;2.95;1.20;;;24.60;18.10;;;;;;5030499;28;20118;-64
2021/04/26 11:23:46;;;;;;;3.20;1.13;;;24.90;18.60;;;;;;5030545;28;20041;-65
2021/04/26 11:26:23;;;;;;;3.80;1.17;;;25.70;19.00;;;;;;5012633;28;20493;-65
2021/04/26 11:29:01;;;;;;;5.53;1.30;;;28.00;19.40;;;;;;5030912;28;20029;-65
2021/04/26 11:31:56;;;;;;;6.43;1.50;;;30.10;19.00;;;;;;5030216;28;20104;-66
2021/04/26 11:34:22;;;;;;;4.13;1.30;;;32.80;18.70;;;;;;5016920;28;20033;-65
2021/04/26 11:37:00;;;;;;;5.00;1.25;;;34.70;18.40;;;;;;5030676;28;20044;-66
2021/04/26 11:39:35;;;;;;;4.63;1.10;;;36.30;17.70;;;;;;5012628;28;20052;-66
2021/04/26 11:42:01;;;;;;;3.78;1.20;;;37.30;17.20;;;;;;5012824;28;20065;-66
2021/04/26 11:44:28;;;;;;;3.45;1.20;;;37.20;16.60;;;;;;4996336;28;20084;-66
2021/04/26 11:47:04;;;;;;;2.72;1.15;;;36.40;16.50;;;;;;5030018;28;20037;-66
2021/04/26 11:49:43;;;;;;;4.88;1.05;;;36.30;16.50;;;;;;5016123;28;20045;-65
2021/04/26 11:52:15;;;;;;;3.80;1.10;;;36.50;16.30;;;;;;5034284;28;20040;-67
2021/04/26 11:54:43;;;;;;;2.17;0.90;;;37.00;16.20;;;;;;5034476;28;20042;-65
2021/04/26 11:57:16;;;;;;;2.30;1.05;;;36.90;15.80;;;;;;5016424;28;20477;-65
2021/04/26 11:59:58;;;;;;;3.38;1.20;;;37.10;15.60;;;;;;5034436;28;20041;-66
2021/04/26 12:02:28;;;;;;;4.07;1.10;;;36.90;15.50;;;;;;4999859;28;20045;-65
2021/04/26 12:04:58;;;;;;;4.45;1.30;;;37.00;15.70;;;;;;5015264;28;20506;-65
2021/04/26 12:07:24;;;;;;;2.97;1.10;;;37.20;15.50;;;;;;5015414;28;20049;-66
2021/04/26 12:09:54;;;;;;;3.78;1.10;;;36.70;15.30;;;;;;5034022;28;20026;-65
2021/04/26 12:12:21;;;;;;;3.03;1.10;;;35.90;15.30;;;;;;5033127;28;20056;-65
2021/04/26 12:14:56;;;;;;;3.40;1.30;;;35.00;14.90;;;;;;5014821;28;20071;-65
2021/04/26 12:17:30;;;;;;;4.15;1.23;;;33.50;14.90;;;;;;5033488;28;20076;-65
2021/04/26 12:19:58;;;;;;;2.25;1.10;;;32.20;15.10;;;;;;5015419;28;20042;-65
2021/04/26 12:22:25;;;;;;;2.75;1.20;;;30.80;15.10;;;;;;5033756;28;20114;-64
2021/04/26 12:24:54;;;;;;;5.05;1.13;;;28.90;15.00;;;;;;5031306;28;20048;-64
2021/04/26 12:27:25;;;;;;;3.80;1.30;;;26.90;15.10;;;;;;5033402;28;20364;-63
2021/04/26 12:29:52;;;;;;;3.28;1.40;;;25.10;15.50;;;;;;5032994;28;20037;-65
2021/04/26 12:32:18;;;;;;;2.33;1.27;;;23.80;16.00;;;;;;5033551;28;20513;-64
2021/04/26 12:34:47;;;;;;;3.80;1.20;;;22.60;16.50;;;;;;5032751;28;20469;-65
2021/04/26 12:37:14;;;;;;;3.13;1.40;;;21.60;16.90;;;;;;5033083;28;20034;-64
2021/04/26 12:39:40;;;;;;;5.20;1.23;;;20.80;17.40;;;;;;5033287;28;20037;-63
2021/04/26 12:42:14;;;;;;;3.90;1.30;;;20.30;18.00;;;;;;5032884;28;20044;-64
2021/04/26 12:44:41;;;;;;;4.45;1.48;;;20.10;18.30;;;;;;5015586;28;20672;-63
2021/04/26 12:47:21;;;;;;;4.25;1.30;;;20.00;18.30;;;;;;4998858;28;20037;-63
2021/04/26 12:49:48;;;;;;;3.35;1.27;;;19.60;18.60;;;;;;5033324;28;20056;-64
2021/04/26 12:52:18;;;;;;;4.78;1.80;;;19.40;18.90;;;;;;5032679;28;20034;-63
2021/04/26 12:55:02;;;;;;;4.50;1.60;;;19.30;19.30;;;;;;5032906;28;20048;-62
2021/04/26 12:57:28;;;;;;;2.80;1.23;;;19.00;19.20;;;;;;5032437;28;20041;-63
2021/04/26 12:59:55;;;;;;;2.75;1.30;;;18.50;19.30;;;;;;5032680;28;20037;-62
2021/04/26 13:02:29;;;;;;;2.90;1.35;;;18.00;19.60;;;;;;5015061;28;20240;-63
2021/04/26 13:04:57;;;;;;;3.25;1.20;;;17.40;20.10;;;;;;5031507;28;20399;-62
2021/04/26 13:07:24;;;;;;;3.03;1.30;;;17.00;20.50;;;;;;5032725;28;20168;-63
2021/04/26 13:10:07;;;;;;;3.53;1.40;;;16.80;20.80;;;;;;5014728;28;20084;-63
2021/04/26 13:12:34;;;;;;;3.83;1.10;;;16.80;21.20;;;;;;5032406;28;20522;-63